Redoak, Ohio
Current Conditions -  °F | °C
As of 11:15 PM on Wednesday 26 Nov 2014 (Local Time) from KFGX Reporting Station
Overcast Overcast  
Wind Chill: -3°   Ceiling: 10000
Heat Index:   Visibility: 10mi
Dew Point: -2°   Wind: 5mph
Humidity: 87%   Direction: 10°N
Pressure: 30.05"   Gusts: NA
Location:  38.776°N, 83.7985°W
Report Text: KFGX 270415Z AUTO 01004KT 10SM OVC100 00/M02 A3005 RMK AO2 T00001020
Loading
Personal Weather Stations






























Interactive Weather Map New forecast layout! Learn more

10-Day Weather Forecast

Advertisements
Track Severe Weather on mobile